Time;durP1;ratioP1;P1;durP2;ratioP2;P2;SDS_P1;SDS_P2;PMS_P1;PMS_P2;Temp;Humidity;BMP_temperature;BMP_pressure;BME280_temperature;BME280_humidity;BME280_pressure;Samples;Min_cycle;Max_cycle;Signal;HPM_P1;HPM_P2
2022/03/01 00:00:18;;;;;;;;;;;8.60;91.00;;;;;;4303274;33;43542;-85
2022/03/01 00:02:45;;;;;;;;;;;8.60;92.60;;;;;;4303158;33;45809;-85
2022/03/01 00:05:12;;;;;;;;;;;8.50;91.50;;;;;;4316338;33;45650;-85
2022/03/01 00:07:39;;;;;;;;;;;8.50;91.20;;;;;;4316458;33;42885;-85
2022/03/01 00:10:07;;;;;;;;;;;8.40;92.10;;;;;;4303527;33;43572;-84
2022/03/01 00:12:34;;;;;;;;;;;8.40;92.00;;;;;;4303258;33;43266;-84
2022/03/01 00:15:01;;;;;;;;;;;8.40;91.80;;;;;;4303490;33;43854;-84
2022/03/01 00:17:28;;;;;;;;;;;8.40;92.60;;;;;;4303151;33;42966;-84
2022/03/01 00:19:55;;;;;;;;;;;8.40;91.90;;;;;;4316574;33;43137;-84
2022/03/01 00:22:23;;;;;;;;;;;8.40;91.90;;;;;;4315942;33;44279;-84
2022/03/01 00:24:50;;;;;;;;;;;8.30;90.90;;;;;;4316347;33;43807;-84
2022/03/01 00:27:17;;;;;;;;;;;8.30;91.30;;;;;;4302843;33;45279;-84
2022/03/01 00:29:44;;;;;;;;;;;8.30;92.30;;;;;;4315998;33;44120;-84
2022/03/01 00:32:11;;;;;;;;;;;8.30;92.30;;;;;;4315995;33;43332;-84
2022/03/01 00:34:38;;;;;;;;;;;8.30;91.50;;;;;;4316182;33;44215;-85
2022/03/01 00:37:05;;;;;;;;;;;8.20;91.60;;;;;;4303106;33;43284;-85
2022/03/01 00:39:32;;;;;;;;;;;8.20;91.40;;;;;;4315959;33;46017;-84
2022/03/01 00:41:59;;;;;;;;;;;8.20;91.90;;;;;;4316374;33;44195;-85
2022/03/01 00:44:26;;;;;;;;;;;8.10;91.70;;;;;;4316152;33;42885;-85
2022/03/01 00:46:53;;;;;;;;;;;8.20;92.10;;;;;;4302758;33;44494;-85
2022/03/01 00:49:20;;;;;;;;;;;8.10;92.80;;;;;;4302659;33;44182;-85
2022/03/01 00:51:47;;;;;;;;;;;8.10;91.40;;;;;;4303066;33;42770;-85
2022/03/01 00:54:14;;;;;;;;;;;8.10;92.00;;;;;;4302913;33;43426;-85
2022/03/01 00:56:42;;;;;;;;;;;8.00;91.70;;;;;;4315711;33;43957;-85
2022/03/01 00:59:09;;;;;;;;;;;8.00;91.80;;;;;;4316127;33;43333;-85
2022/03/01 01:01:37;;;;;;;;;;;8.00;92.50;;;;;;4302886;33;44365;-85
2022/03/01 01:04:04;;;;;;;;;;;8.00;92.40;;;;;;4302864;33;42579;-85
2022/03/01 01:06:31;;;;;;;;;;;8.00;92.30;;;;;;4302423;33;45826;-85
2022/03/01 01:08:58;;;;;;;;;;;7.90;92.40;;;;;;4315567;33;43350;-85
2022/03/01 01:11:25;;;;;;;;;;;7.90;92.40;;;;;;4315969;33;43852;-85
2022/03/01 01:13:52;;;;;;;;;;;8.00;92.60;;;;;;4315976;33;43285;-85
2022/03/01 01:16:19;;;;;;;;;;;7.90;92.30;;;;;;4302447;33;42603;-85
2022/03/01 01:18:46;;;;;;;;;;;7.90;92.50;;;;;;4315694;33;43187;-85
2022/03/01 01:21:14;;;;;;;;;;;7.80;92.70;;;;;;4315951;33;44189;-85
2022/03/01 01:23:44;;;;;;;;;;;7.80;92.90;;;;;;4315509;33;44064;-85
2022/03/01 01:26:13;;;;;;;;;;;7.80;92.90;;;;;;4302973;33;45319;-85
2022/03/01 01:28:40;;;;;;;;;;;7.70;92.40;;;;;;4302413;33;43535;-85
2022/03/01 01:31:07;;;;;;;;;;;7.80;92.20;;;;;;4302507;33;43451;-85
2022/03/01 01:33:34;;;;;;;;;;;7.70;92.30;;;;;;4315492;33;43209;-85
2022/03/01 01:36:02;;;;;;;;;;;7.70;92.30;;;;;;4318333;33;43881;-85
2022/03/01 01:38:29;;;;;;;;;;;7.60;92.90;;;;;;4305526;33;44611;-85
2022/03/01 01:40:56;;;;;;;;;;;7.60;92.50;;;;;;4318304;33;42571;-85
2022/03/01 01:43:23;;;;;;;;;;;7.60;92.80;;;;;;4318869;33;45159;-85
2022/03/01 01:45:50;;;;;;;;;;;7.60;92.60;;;;;;4305463;33;44766;-85
2022/03/01 01:48:17;;;;;;;;;;;7.60;92.50;;;;;;4318300;33;45114;-85
2022/03/01 01:50:44;;;;;;;;;;;7.60;92.70;;;;;;4318327;33;43765;-85
2022/03/01 01:53:11;;;;;;;;;;;7.50;92.50;;;;;;4305667;33;43342;-85
2022/03/01 01:55:38;;;;;;;;;;;7.60;92.40;;;;;;4304946;33;43970;-85
2022/03/01 01:58:05;;;;;;;;;;;7.60;92.30;;;;;;4318119;33;43001;-84
2022/03/01 02:00:32;;;;;;;;;;;7.50;92.30;;;;;;4318472;33;45949;-85
2022/03/01 02:02:59;;;;;;;;;;;7.50;92.00;;;;;;4318091;33;43194;-85
2022/03/01 02:05:28;;;;;;;;;;;7.50;92.00;;;;;;4305461;33;45813;-85
2022/03/01 02:07:55;;;;;;;;;;;7.50;91.90;;;;;;4304896;33;43239;-85
2022/03/01 02:10:25;;;;;;;;;;;7.40;92.50;;;;;;4318322;33;45698;-85
2022/03/01 02:12:53;;;;;;;;;;;7.40;92.40;;;;;;4305125;33;43209;-85
2022/03/01 02:15:20;;;;;;;;;;;7.40;92.40;;;;;;4318010;33;44234;-85
2022/03/01 02:17:47;;;;;;;;;;;7.30;92.30;;;;;;4317885;33;44020;-85
2022/03/01 02:20:18;;;;;;;;;;;7.30;93.20;;;;;;4317745;33;44262;-85
2022/03/01 02:22:47;;;;;;;;;;;7.40;93.70;;;;;;4304803;33;43125;-85
2022/03/01 02:25:14;;;;;;;;;;;7.40;92.70;;;;;;4317821;33;44090;-85
2022/03/01 02:27:41;;;;;;;;;;;7.40;92.60;;;;;;4317621;33;44027;-85
2022/03/01 02:30:09;;;;;;;;;;;7.40;92.70;;;;;;4317671;33;42310;-85
2022/03/01 02:32:40;;;;;;;;;;;7.30;91.90;;;;;;4304973;33;43038;-85
2022/03/01 02:35:08;;;;;;;;;;;7.30;92.40;;;;;;4304870;33;43599;-85
2022/03/01 02:37:36;;;;;;;;;;;7.30;92.00;;;;;;4317720;33;42920;-85
2022/03/01 02:40:05;;;;;;;;;;;7.40;92.60;;;;;;4304525;33;43806;-85
2022/03/01 02:42:35;;;;;;;;;;;7.40;91.50;;;;;;4317596;33;42966;-84
2022/03/01 02:45:04;;;;;;;;;;;7.40;92.70;;;;;;4304290;33;43562;-85
2022/03/01 02:47:31;;;;;;;;;;;7.40;92.70;;;;;;4317395;33;43341;-85
2022/03/01 02:49:58;;;;;;;;;;;7.40;93.30;;;;;;4317356;33;43753;-85
2022/03/01 02:52:25;;;;;;;;;;;7.40;93.20;;;;;;4317835;33;44693;-85
2022/03/01 02:54:52;;;;;;;;;;;7.40;93.40;;;;;;4304443;33;43024;-85
2022/03/01 02:57:19;;;;;;;;;;;7.40;92.20;;;;;;4304437;33;42878;-85
2022/03/01 02:59:46;;;;;;;;;;;7.50;92.20;;;;;;4317170;33;42997;-85
2022/03/01 03:02:15;;;;;;;;;;;7.40;91.50;;;;;;4317464;33;43932;-85
2022/03/01 03:04:43;;;;;;;;;;;7.40;91.40;;;;;;4304608;33;43398;-85
2022/03/01 03:07:11;;;;;;;;;;;7.40;91.60;;;;;;4304511;33;43928;-85
2022/03/01 03:09:38;;;;;;;;;;;7.40;91.90;;;;;;4317306;33;45097;-85
2022/03/01 03:12:06;;;;;;;;;;;7.30;92.10;;;;;;4304514;33;43606;-85
2022/03/01 03:14:33;;;;;;;;;;;7.30;91.70;;;;;;4317050;33;43528;-85
2022/03/01 03:17:00;;;;;;;;;;;7.30;92.00;;;;;;4317026;33;42949;-85
2022/03/01 03:19:27;;;;;;;;;;;7.30;91.60;;;;;;4317126;33;44321;-85
2022/03/01 03:21:54;;;;;;;;;;;7.30;92.00;;;;;;4317472;33;44242;-85
2022/03/01 03:24:21;;;;;;;;;;;7.30;92.10;;;;;;4317303;33;44898;-85
2022/03/01 03:26:49;;;;;;;;;;;7.30;91.90;;;;;;4303954;33;43821;-85
2022/03/01 03:29:18;;;;;;;;;;;7.20;91.50;;;;;;4317174;33;45155;-85
2022/03/01 03:31:49;;;;;;;;;;;7.20;91.60;;;;;;4317195;33;45705;-85
2022/03/01 03:34:16;;;;;;;;;;;7.20;91.90;;;;;;4316825;33;43950;-85
2022/03/01 03:36:44;;;;;;;;;;;7.20;91.90;;;;;;4303944;33;42662;-85
2022/03/01 03:39:11;;;;;;;;;;;7.20;91.30;;;;;;4303488;33;44784;-85
2022/03/01 03:41:39;;;;;;;;;;;7.20;92.00;;;;;;4316651;33;44009;-85
2022/03/01 03:44:06;;;;;;;;;;;7.20;91.40;;;;;;4316786;33;43248;-85
2022/03/01 03:46:34;;;;;;;;;;;7.10;91.80;;;;;;4317036;33;43113;-85
2022/03/01 03:49:01;;;;;;;;;;;7.10;90.90;;;;;;4316802;33;44920;-85
2022/03/01 03:51:28;;;;;;;;;;;7.10;91.30;;;;;;4304221;33;42815;-84
2022/03/01 03:53:55;;;;;;;;;;;7.10;91.20;;;;;;4303613;33;43457;-85
2022/03/01 03:56:23;;;;;;;;;;;7.10;91.70;;;;;;4303946;33;44247;-85
2022/03/01 03:58:50;;;;;;;;;;;7.10;91.50;;;;;;4302909;33;43692;-85
2022/03/01 04:01:18;;;;;;;;;;;7.10;91.40;;;;;;4303846;33;42946;-85
2022/03/01 04:03:45;;;;;;;;;;;7.10;92.20;;;;;;4316487;33;44837;-85
2022/03/01 04:06:12;;;;;;;;;;;7.20;91.80;;;;;;4303751;33;44206;-84
2022/03/01 04:08:39;;;;;;;;;;;7.10;92.00;;;;;;4303435;33;42824;-84
2022/03/01 04:11:06;;;;;;;;;;;7.10;91.80;;;;;;4316627;33;43491;-85
2022/03/01 04:13:34;;;;;;;;;;;7.10;92.00;;;;;;4303322;33;42703;-85
2022/03/01 04:16:01;;;;;;;;;;;7.10;92.40;;;;;;4303232;33;42690;-85
2022/03/01 04:18:29;;;;;;;;;;;7.10;92.40;;;;;;4316321;33;44372;-85
2022/03/01 04:20:56;;;;;;;;;;;7.10;92.60;;;;;;4316213;33;42877;-85
2022/03/01 04:23:23;;;;;;;;;;;7.10;92.40;;;;;;4303352;33;44268;-85
2022/03/01 04:25:50;;;;;;;;;;;7.10;92.60;;;;;;4316077;33;43557;-84
2022/03/01 04:28:17;;;;;;;;;;;7.10;92.80;;;;;;4315996;33;43257;-85
2022/03/01 04:30:45;;;;;;;;;;;7.10;92.90;;;;;;4303040;33;42735;-85
2022/03/01 04:33:12;;;;;;;;;;;7.10;92.60;;;;;;4316142;33;44317;-85
2022/03/01 04:35:39;;;;;;;;;;;7.10;93.10;;;;;;4303220;33;43492;-85
2022/03/01 04:38:07;;;;;;;;;;;7.10;92.10;;;;;;4316554;33;43469;-85
2022/03/01 04:40:34;;;;;;;;;;;7.10;92.50;;;;;;4315881;33;44112;-85
2022/03/01 04:43:02;;;;;;;;;;;7.10;92.50;;;;;;4302698;33;44256;-85
2022/03/01 04:45:30;;;;;;;;;;;7.10;92.80;;;;;;4302696;33;43389;-84
2022/03/01 04:47:58;;;;;;;;;;;7.10;92.40;;;;;;4303133;33;44257;-85
2022/03/01 04:50:25;;;;;;;;;;;7.10;92.60;;;;;;4315785;33;42346;-85
2022/03/01 04:52:52;;;;;;;;;;;7.10;92.00;;;;;;4302632;33;43446;-85
2022/03/01 04:55:19;;;;;;;;;;;7.00;92.10;;;;;;4316197;33;43427;-85
2022/03/01 04:57:46;;;;;;;;;;;7.00;92.10;;;;;;4316135;33;43868;-85
2022/03/01 05:00:14;;;;;;;;;;;7.00;92.10;;;;;;4302815;33;43302;-85
2022/03/01 05:02:41;;;;;;;;;;;7.00;92.20;;;;;;4315782;33;43810;-85
2022/03/01 05:05:10;;;;;;;;;;;7.00;91.80;;;;;;4316223;33;42836;-84
2022/03/01 05:07:38;;;;;;;;;;;7.00;92.80;;;;;;4302987;33;44240;-85
2022/03/01 05:10:06;;;;;;;;;;;6.90;92.10;;;;;;4302358;33;43005;-84
2022/03/01 05:12:54;;;;;;;;;;;6.90;91.50;;;;;;4302508;33;42798;-85
2022/03/01 05:15:22;;;;;;;;;;;6.90;91.80;;;;;;4315943;33;43026;-85
2022/03/01 05:17:50;;;;;;;;;;;6.90;91.50;;;;;;4315585;33;44046;-85
2022/03/01 05:20:17;;;;;;;;;;;6.80;91.90;;;;;;4302214;33;44223;-85
2022/03/01 05:22:45;;;;;;;;;;;6.90;92.20;;;;;;4302833;33;43860;-84
2022/03/01 05:25:13;;;;;;;;;;;6.90;91.90;;;;;;4302865;33;44257;-85
2022/03/01 05:27:42;;;;;;;;;;;6.80;92.10;;;;;;4302505;33;44136;-85
2022/03/01 05:30:10;;;;;;;;;;;6.80;91.80;;;;;;4302564;33;45046;-84
2022/03/01 05:32:39;;;;;;;;;;;6.80;91.80;;;;;;4302906;33;44228;-84
2022/03/01 05:35:09;;;;;;;;;;;6.80;92.10;;;;;;4315532;33;43344;-85
2022/03/01 05:37:37;;;;;;;;;;;6.80;92.10;;;;;;4302245;33;45744;-85
2022/03/01 05:40:05;;;;;;;;;;;6.80;92.00;;;;;;4315382;33;44183;-84
2022/03/01 05:42:32;;;;;;;;;;;6.80;91.70;;;;;;4315597;33;44143;-84
2022/03/01 05:45:00;;;;;;;;;;;6.80;92.00;;;;;;4315684;33;43838;-84
2022/03/01 05:47:27;;;;;;;;;;;6.80;91.30;;;;;;4315223;33;44752;-84
2022/03/01 05:49:54;;;;;;;;;;;6.80;92.10;;;;;;4315560;33;44748;-85
2022/03/01 05:52:21;;;;;;;;;;;6.80;91.60;;;;;;4315367;33;43489;-85
2022/03/01 05:54:48;;;;;;;;;;;6.80;91.60;;;;;;4302145;33;42944;-85
2022/03/01 05:57:16;;;;;;;;;;;6.70;91.50;;;;;;4302379;33;42494;-84
2022/03/01 05:59:43;;;;;;;;;;;6.70;92.00;;;;;;4302002;33;44485;-84
2022/03/01 06:02:10;;;;;;;;;;;6.70;92.20;;;;;;4302304;33;44059;-84
2022/03/01 06:04:37;;;;;;;;;;;6.70;92.10;;;;;;4315138;33;44079;-84
2022/03/01 06:07:04;;;;;;;;;;;6.80;93.00;;;;;;4302072;33;44123;-84
2022/03/01 06:09:31;;;;;;;;;;;6.70;92.70;;;;;;4302153;33;43016;-84
2022/03/01 06:11:58;;;;;;;;;;;6.80;92.50;;;;;;4302044;33;43796;-84
2022/03/01 06:14:25;;;;;;;;;;;6.80;92.50;;;;;;4315162;33;44092;-85
2022/03/01 06:16:52;;;;;;;;;;;6.70;93.00;;;;;;4302451;33;43827;-85
2022/03/01 06:19:19;;;;;;;;;;;6.80;93.20;;;;;;4302204;33;42811;-84
2022/03/01 06:21:46;;;;;;;;;;;6.80;92.60;;;;;;4317554;33;44249;-84
2022/03/01 06:24:14;;;;;;;;;;;6.70;92.70;;;;;;4304816;33;43474;-85
2022/03/01 06:26:42;;;;;;;;;;;6.70;92.60;;;;;;4317716;33;44074;-85
2022/03/01 06:29:09;;;;;;;;;;;6.70;92.40;;;;;;4318422;33;44233;-84
2022/03/01 06:31:36;;;;;;;;;;;6.70;92.70;;;;;;4304934;33;45650;-85
2022/03/01 06:34:03;;;;;;;;;;;6.70;92.50;;;;;;4317608;33;42965;-84
2022/03/01 06:36:30;;;;;;;;;;;6.70;92.40;;;;;;4304442;33;44644;-84
2022/03/01 06:38:57;;;;;;;;;;;6.60;92.90;;;;;;4317540;33;42773;-84
2022/03/01 06:41:24;;;;;;;;;;;6.60;92.40;;;;;;4304371;33;43909;-85
2022/03/01 06:43:52;;;;;;;;;;;6.70;92.10;;;;;;4305005;33;44210;-84
2022/03/01 06:46:20;;;;;;;;;;;6.60;92.30;;;;;;4317973;33;43466;-84
2022/03/01 06:48:48;;;;;;;;;;;6.70;91.80;;;;;;4304612;33;43487;-84
2022/03/01 06:51:15;;;;;;;;;;;6.70;92.00;;;;;;4317587;33;43889;-84
2022/03/01 06:53:42;;;;;;;;;;;6.60;92.20;;;;;;4304243;33;42748;-84
2022/03/01 06:56:09;;;;;;;;;;;6.60;92.40;;;;;;4317369;33;43458;-84
2022/03/01 06:58:37;;;;;;;;;;;6.60;92.40;;;;;;4304261;33;42894;-84
2022/03/01 07:01:06;;;;;;;;;;;6.60;92.50;;;;;;4317278;33;43762;-84
2022/03/01 07:03:34;;;;;;;;;;;6.60;93.20;;;;;;4304380;33;43897;-84
2022/03/01 07:06:01;;;;;;;;;;;6.70;93.40;;;;;;4317363;33;44229;-84
2022/03/01 07:08:28;;;;;;;;;;;6.70;93.00;;;;;;4317275;33;42756;-85
2022/03/01 07:10:55;;;;;;;;;;;6.70;93.00;;;;;;4317501;33;42383;-84
2022/03/01 07:13:24;;;;;;;;;;;6.70;92.80;;;;;;4317497;33;44195;-84
2022/03/01 07:15:51;;;;;;;;;;;6.70;92.70;;;;;;4303912;33;43745;-84
2022/03/01 07:18:18;;;;;;;;;;;6.70;92.90;;;;;;4317195;33;44879;-84
2022/03/01 07:20:45;;;;;;;;;;;6.70;92.60;;;;;;4316880;33;42771;-84
2022/03/01 07:23:13;;;;;;;;;;;6.70;92.90;;;;;;4317503;33;43579;-84
2022/03/01 07:25:40;;;;;;;;;;;6.70;92.90;;;;;;4317339;33;45616;-84
2022/03/01 07:28:07;;;;;;;;;;;6.70;92.20;;;;;;4304100;33;44576;-84
2022/03/01 07:30:37;;;;;;;;;;;6.70;93.00;;;;;;4316874;33;43960;-84
2022/03/01 07:33:04;;;;;;;;;;;6.70;92.70;;;;;;4316492;33;43075;-84
2022/03/01 07:35:31;;;;;;;;;;;6.70;93.00;;;;;;4316999;33;43832;-84
2022/03/01 07:37:58;;;;;;;;;;;6.80;93.00;;;;;;4316716;33;43494;-84
2022/03/01 07:40:26;;;;;;;;;;;6.70;93.00;;;;;;4317060;33;43327;-84
2022/03/01 07:42:54;;;;;;;;;;;6.70;93.10;;;;;;4316710;33;44257;-84
2022/03/01 07:45:21;;;;;;;;;;;6.80;93.20;;;;;;4316521;33;42632;-84
2022/03/01 07:47:50;;;;;;;;;;;6.70;93.00;;;;;;4316534;33;44217;-84
2022/03/01 07:50:17;;;;;;;;;;;6.70;93.10;;;;;;4316616;33;43958;-84
2022/03/01 07:52:44;;;;;;;;;;;6.80;93.10;;;;;;4316955;33;43520;-84
2022/03/01 07:55:11;;;;;;;;;;;6.80;93.00;;;;;;4316475;33;42712;-85
2022/03/01 07:57:38;;;;;;;;;;;6.80;93.10;;;;;;4303513;33;43209;-84
2022/03/01 08:00:09;;;;;;;;;;;6.80;93.20;;;;;;4303727;33;44171;-84
2022/03/01 08:02:39;;;;;;;;;;;6.80;93.60;;;;;;4316408;33;43875;-84
2022/03/01 08:05:07;;;;;;;;;;;6.80;93.40;;;;;;4303278;33;44277;-83
2022/03/01 08:07:48;;;;;;;;;;;6.80;93.90;;;;;;4316837;33;42672;-84
2022/03/01 08:10:14;;;;;;;;;;;6.80;93.60;;;;;;4316764;33;45768;-84
2022/03/01 08:12:42;;;;;;;;;;;6.80;94.00;;;;;;4303292;33;44156;-84
2022/03/01 08:15:09;;;;;;;;;;;6.80;94.10;;;;;;4316349;33;44041;-84
2022/03/01 08:17:44;;;;;;;;;;;6.80;94.20;;;;;;4303173;33;42255;-84
2022/03/01 08:20:11;;;;;;;;;;;6.80;94.30;;;;;;4303508;33;43983;-84
2022/03/01 08:22:39;;;;;;;;;;;6.80;94.30;;;;;;4302923;33;44771;-84
2022/03/01 08:25:07;;;;;;;;;;;6.90;93.80;;;;;;4303327;33;43212;-84
2022/03/01 08:27:34;;;;;;;;;;;6.90;94.70;;;;;;4303212;33;43530;-84
2022/03/01 08:30:01;;;;;;;;;;;6.90;94.00;;;;;;4303231;33;42652;-84
2022/03/01 08:32:28;;;;;;;;;;;6.80;94.00;;;;;;4302894;33;42736;-84
2022/03/01 08:34:57;;;;;;;;;;;6.90;94.20;;;;;;4316395;33;43152;-83
2022/03/01 08:37:24;;;;;;;;;;;6.90;94.40;;;;;;4303398;33;45133;-84
2022/03/01 08:39:51;;;;;;;;;;;6.90;94.40;;;;;;4316048;33;42194;-84
2022/03/01 08:42:18;;;;;;;;;;;6.90;94.70;;;;;;4316087;33;43757;-84
2022/03/01 08:44:45;;;;;;;;;;;6.90;94.70;;;;;;4302977;33;43843;-84
2022/03/01 08:47:13;;;;;;;;;;;6.90;94.90;;;;;;4302688;33;44135;-84
2022/03/01 08:49:40;;;;;;;;;;;6.90;94.80;;;;;;4316306;33;43482;-84
2022/03/01 08:52:08;;;;;;;;;;;6.90;95.00;;;;;;4316264;33;43073;-84
2022/03/01 08:54:35;;;;;;;;;;;6.90;95.00;;;;;;4315751;33;44241;-84
2022/03/01 08:57:02;;;;;;;;;;;6.90;94.90;;;;;;4316357;33;44158;-84
2022/03/01 08:59:29;;;;;;;;;;;6.90;95.10;;;;;;4315740;33;43212;-84
2022/03/01 09:01:58;;;;;;;;;;;6.90;94.70;;;;;;4302627;33;44504;-84
2022/03/01 09:04:25;;;;;;;;;;;6.90;95.20;;;;;;4303190;33;43505;-84
2022/03/01 09:06:52;;;;;;;;;;;6.90;95.30;;;;;;4302547;33;44770;-84
2022/03/01 09:09:19;;;;;;;;;;;6.90;95.40;;;;;;4302439;33;43001;-84
2022/03/01 09:11:46;;;;;;;;;;;6.90;95.20;;;;;;4302624;33;43359;-84
2022/03/01 09:14:13;;;;;;;;;;;6.90;95.20;;;;;;4302760;33;44224;-84
2022/03/01 09:16:41;;;;;;;;;;;6.90;95.20;;;;;;4315881;33;44765;-84
2022/03/01 09:19:10;;;;;;;;;;;6.90;95.10;;;;;;4315593;33;43108;-84
2022/03/01 09:21:38;;;;;;;;;;;6.90;94.80;;;;;;4315550;33;43955;-84
2022/03/01 09:24:05;;;;;;;;;;;6.90;94.70;;;;;;4315527;33;44739;-84
2022/03/01 09:26:32;;;;;;;;;;;6.90;95.20;;;;;;4302689;33;43057;-84
2022/03/01 09:28:59;;;;;;;;;;;6.90;95.10;;;;;;4302810;33;43847;-84
2022/03/01 09:31:26;;;;;;;;;;;6.90;95.30;;;;;;4302821;33;43522;-84
2022/03/01 09:33:54;;;;;;;;;;;6.90;95.60;;;;;;4315773;33;43912;-84
2022/03/01 09:36:21;;;;;;;;;;;6.90;95.30;;;;;;4316300;33;43671;-84
2022/03/01 09:38:48;;;;;;;;;;;6.90;95.20;;;;;;4315834;33;43161;-84
2022/03/01 09:41:15;;;;;;;;;;;6.90;95.50;;;;;;4302679;33;27891;-84
2022/03/01 09:43:43;;;;;;;;;;;6.90;95.60;;;;;;4315741;33;43233;-84
2022/03/01 09:46:14;;;;;;;;;;;6.90;95.70;;;;;;4315424;33;43833;-84
2022/03/01 09:48:42;;;;;;;;;;;6.90;95.60;;;;;;4302210;33;44304;-83
2022/03/01 09:51:10;;;;;;;;;;;6.90;95.40;;;;;;4302367;33;44301;-86
2022/03/01 09:53:39;;;;;;;;;;;6.90;95.60;;;;;;4315489;33;43255;-84
2022/03/01 09:56:07;;;;;;;;;;;7.00;95.50;;;;;;4316603;33;43792;-84
2022/03/01 09:58:36;;;;;;;;;;;7.00;95.10;;;;;;4318596;33;44024;-84
2022/03/01 10:01:03;;;;;;;;;;;7.00;95.30;;;;;;4318525;33;43298;-84
2022/03/01 10:03:35;;;;;;;;;;;6.90;95.40;;;;;;4317996;33;42666;-84
2022/03/01 10:06:07;;;;;;;;;;;7.00;95.50;;;;;;4305359;33;44021;-84
2022/03/01 10:08:38;;;;;;;;;;;7.00;95.40;;;;;;4318516;33;43934;-84
2022/03/01 10:11:06;;;;;;;;;;;7.00;95.60;;;;;;4304717;33;45674;-84
2022/03/01 10:13:34;;;;;;;;;;;7.00;95.50;;;;;;4304970;33;43889;-84
2022/03/01 10:16:10;;;;;;;;;;;7.00;95.40;;;;;;4304805;33;42811;-84
2022/03/01 10:18:48;;;;;;;;;;;7.10;95.30;;;;;;4318153;33;43369;-84
2022/03/01 10:21:16;;;;;;;;;;;7.10;95.50;;;;;;4305388;33;43315;-84
2022/03/01 10:23:50;;;;;;;;;;;7.10;95.20;;;;;;4318122;33;44797;-84
2022/03/01 10:26:18;;;;;;;;;;;7.10;95.20;;;;;;4318034;33;42793;-84
2022/03/01 10:28:45;;;;;;;;;;;7.10;95.30;;;;;;4304916;33;43297;-84
2022/03/01 10:31:13;;;;;;;;;;;7.10;95.70;;;;;;4317946;33;42216;-84
2022/03/01 10:33:56;;;;;;;;;;;7.10;95.50;;;;;;4317621;33;45050;-84
2022/03/01 10:36:28;;;;;;;;;;;7.10;95.60;;;;;;4318048;33;43164;-84
2022/03/01 10:38:59;;;;;;;;;;;7.10;95.90;;;;;;4318189;33;43471;-84
2022/03/01 10:41:28;;;;;;;;;;;7.10;95.60;;;;;;4317764;33;43837;-84
2022/03/01 10:43:57;;;;;;;;;;;7.20;95.20;;;;;;4317431;33;43240;-84
2022/03/01 10:46:25;;;;;;;;;;;7.20;95.40;;;;;;4317897;33;43187;-84
2022/03/01 10:49:01;;;;;;;;;;;7.20;95.50;;;;;;4317544;33;43968;-84
2022/03/01 10:51:28;;;;;;;;;;;7.20;95.70;;;;;;4318095;33;44271;-84
2022/03/01 10:53:57;;;;;;;;;;;7.30;95.60;;;;;;4304296;33;43267;-84
2022/03/01 10:56:33;;;;;;;;;;;7.30;95.70;;;;;;4304691;33;44249;-84
2022/03/01 10:59:00;;;;;;;;;;;7.30;95.30;;;;;;4317721;33;44819;-84
2022/03/01 11:01:27;;;;;;;;;;;7.40;95.60;;;;;;4317206;33;43406;-84
2022/03/01 11:03:55;;;;;;;;;;;7.40;95.20;;;;;;4317068;33;44274;-84
2022/03/01 11:06:23;;;;;;;;;;;7.40;95.30;;;;;;4317348;33;43124;-84
2022/03/01 11:08:50;;;;;;;;;;;7.50;95.70;;;;;;4316987;33;42867;-84
2022/03/01 11:11:21;;;;;;;;;;;7.50;95.50;;;;;;4317592;33;43462;-84
2022/03/01 11:13:48;;;;;;;;;;;7.50;95.60;;;;;;4304282;33;43235;-84
2022/03/01 11:16:34;;;;;;;;;;;7.60;95.90;;;;;;4317474;33;43314;-84
2022/03/01 11:19:16;;;;;;;;;;;7.60;96.00;;;;;;4317604;33;45512;-84
2022/03/01 11:21:45;;;;;;;;;;;7.60;95.00;;;;;;4304146;33;44235;-84
2022/03/01 11:24:15;;;;;;;;;;;7.70;95.20;;;;;;4316871;33;43483;-84
2022/03/01 11:26:42;;;;;;;;;;;7.70;95.30;;;;;;4316989;33;43757;-84
2022/03/01 11:29:11;;;;;;;;;;;7.80;94.70;;;;;;4303948;33;45099;-84
2022/03/01 11:31:38;;;;;;;;;;;7.80;95.10;;;;;;4304466;33;44235;-84
2022/03/01 11:34:13;;;;;;;;;;;7.80;94.70;;;;;;4304037;33;42895;-84
2022/03/01 11:36:47;;;;;;;;;;;7.80;94.40;;;;;;4304166;33;43493;-84
2022/03/01 11:39:15;;;;;;;;;;;7.80;94.70;;;;;;4317457;33;43184;-85
2022/03/01 11:41:42;;;;;;;;;;;7.90;94.80;;;;;;4304087;33;44820;-85
2022/03/01 11:44:10;;;;;;;;;;;7.90;95.10;;;;;;4316902;33;43558;-84
2022/03/01 11:46:42;;;;;;;;;;;7.90;94.80;;;;;;4303642;33;43194;-83
2022/03/01 11:49:11;;;;;;;;;;;7.90;95.00;;;;;;4303533;33;43024;-84
2022/03/01 11:51:39;;;;;;;;;;;8.00;95.20;;;;;;4303521;33;45015;-84
2022/03/01 11:54:11;;;;;;;;;;;8.00;95.00;;;;;;4303400;33;42147;-84
2022/03/01 11:56:38;;;;;;;;;;;8.00;94.90;;;;;;4303570;33;42805;-85
2022/03/01 11:59:07;;;;;;;;;;;8.10;94.60;;;;;;4316754;33;44219;-85
2022/03/01 12:01:34;;;;;;;;;;;8.10;94.40;;;;;;4303256;33;42949;-85
2022/03/01 12:04:03;;;;;;;;;;;8.10;94.60;;;;;;4303771;33;42268;-84
2022/03/01 12:06:31;;;;;;;;;;;8.10;95.00;;;;;;4303365;33;43594;-85
2022/03/01 12:08:59;;;;;;;;;;;8.20;94.80;;;;;;4316521;33;43839;-85
2022/03/01 12:11:33;;;;;;;;;;;8.20;94.90;;;;;;4316308;33;44319;-84
2022/03/01 12:14:06;;;;;;;;;;;8.20;94.80;;;;;;4317644;33;20009;-85
2022/03/01 12:16:33;;;;;;;;;;;8.20;95.10;;;;;;4303553;33;44829;-84
2022/03/01 12:19:20;;;;;;;;;;;8.20;95.20;;;;;;4315814;33;46063;-84
2022/03/01 12:21:51;;;;;;;;;;;8.20;95.40;;;;;;4303060;33;42968;-84
2022/03/01 12:24:19;;;;;;;;;;;8.20;95.20;;;;;;4303478;33;45270;-84
2022/03/01 12:26:51;;;;;;;;;;;8.30;95.00;;;;;;4316470;33;44887;-84
2022/03/01 12:29:19;;;;;;;;;;;8.30;94.90;;;;;;4316429;33;43814;-84
2022/03/01 12:32:01;;;;;;;;;;;8.30;95.40;;;;;;4302900;33;44354;-85
2022/03/01 12:34:29;;;;;;;;;;;8.30;95.10;;;;;;4316174;33;44126;-84
2022/03/01 12:37:01;;;;;;;;;;;8.30;94.80;;;;;;4316573;33;44236;-84
2022/03/01 12:39:28;;;;;;;;;;;8.30;95.10;;;;;;4316393;33;44201;-84
2022/03/01 12:41:56;;;;;;;;;;;8.30;95.10;;;;;;4315941;33;42957;-84
2022/03/01 12:44:24;;;;;;;;;;;8.30;95.50;;;;;;4316698;33;20100;-84
2022/03/01 12:46:51;;;;;;;;;;;8.30;94.90;;;;;;4316017;33;43316;-84
2022/03/01 12:49:19;;;;;;;;;;;8.30;95.40;;;;;;4315868;33;43240;-84
2022/03/01 12:51:49;;;;;;;;;;;8.30;95.30;;;;;;4316180;33;43332;-84
2022/03/01 12:54:21;;;;;;;;;;;8.40;95.30;;;;;;4316172;33;42696;-84
2022/03/01 12:56:52;;;;;;;;;;;8.40;95.60;;;;;;4302780;33;43442;-84
2022/03/01 12:59:20;;;;;;;;;;;8.40;95.40;;;;;;4316163;33;43581;-84
2022/03/01 13:01:48;;;;;;;;;;;8.40;95.50;;;;;;4315736;33;43193;-84
2022/03/01 13:04:17;;;;;;;;;;;8.40;95.10;;;;;;4303015;33;42625;-84
2022/03/01 13:06:45;;;;;;;;;;;8.40;95.50;;;;;;4302878;33;43821;-84
2022/03/01 13:09:12;;;;;;;;;;;8.40;95.20;;;;;;4302615;33;44144;-83
2022/03/01 13:11:42;;;;;;;;;;;8.40;95.60;;;;;;4302393;33;43371;-84
2022/03/01 13:14:10;;;;;;;;;;;8.40;95.70;;;;;;4315523;33;43519;-84
2022/03/01 13:16:38;;;;;;;;;;;8.50;95.60;;;;;;4302726;33;44905;-84
2022/03/01 13:19:10;;;;;;;;;;;8.50;95.90;;;;;;4315884;33;45971;-84
2022/03/01 13:21:42;;;;;;;;;;;8.50;95.70;;;;;;4302652;33;42335;-85
2022/03/01 13:24:23;;;;;;;;;;;8.50;95.60;;;;;;4303147;33;43941;-85
2022/03/01 13:27:04;;;;;;;;;;;8.50;95.70;;;;;;4302865;33;44235;-85
2022/03/01 13:39:06;;;;;;;;;;;8.50;95.70;;;;;;4319044;33;43547;-83
2022/03/01 13:45:29;;;;;;;;;;;8.60;96.00;;;;;;4318423;33;43355;-84
2022/03/01 13:48:06;;;;;;;;;;;8.60;96.20;;;;;;4306655;33;20001;-85
2022/03/01 13:50:34;;;;;;;;;;;8.60;95.90;;;;;;4305722;33;43455;-85
2022/03/01 13:59:47;;;;;;;;;;;8.60;96.90;;;;;;4318662;33;43941;-85
2022/03/01 14:08:59;;;;;;;;;;;8.60;97.40;;;;;;4316738;33;43103;-84
2022/03/01 14:11:46;;;;;;;;;;;8.60;97.40;;;;;;4304292;33;44110;-84
2022/03/01 14:20:41;;;;;;;;;;;8.70;98.00;;;;;;4318434;33;43996;-84
2022/03/01 14:29:30;;;;;;;;;;;8.70;98.20;;;;;;4317700;33;44249;-84
2022/03/01 14:31:57;;;;;;;;;;;8.70;98.40;;;;;;4305080;33;45886;-83
2022/03/01 14:34:34;;;;;;;;;;;8.70;98.40;;;;;;4305107;33;43862;-84
2022/03/01 14:37:01;;;;;;;;;;;8.70;98.30;;;;;;4305041;33;43858;-84
2022/03/01 14:39:29;;;;;;;;;;;8.70;98.40;;;;;;4305021;33;43472;-84
2022/03/01 14:41:56;;;;;;;;;;;8.70;98.50;;;;;;4317360;33;43827;-84
2022/03/01 14:44:23;;;;;;;;;;;8.70;99.10;;;;;;4304624;33;42915;-84
2022/03/01 14:46:50;;;;;;;;;;;8.70;98.90;;;;;;4304860;33;44156;-84
2022/03/01 14:49:17;;;;;;;;;;;8.70;99.10;;;;;;4305261;33;20002;-84
2022/03/01 14:51:44;;;;;;;;;;;8.70;99.10;;;;;;4304225;33;44274;-84
2022/03/01 14:54:12;;;;;;;;;;;8.80;99.20;;;;;;4304555;33;43084;-84
2022/03/01 14:56:40;;;;;;;;;;;8.80;99.10;;;;;;4304210;33;44169;-84
2022/03/01 14:59:07;;;;;;;;;;;8.80;98.90;;;;;;4317538;33;43821;-83
2022/03/01 15:01:35;;;;;;;;;;;8.80;99.20;;;;;;4317552;33;44789;-84
2022/03/01 15:04:03;;;;;;;;;;;8.80;99.30;;;;;;4317643;33;44517;-84
2022/03/01 15:06:30;;;;;;;;;;;8.80;99.20;;;;;;4304156;33;43740;-84
2022/03/01 15:08:57;;;;;;;;;;;8.80;99.30;;;;;;4317583;33;43252;-84
2022/03/01 15:11:24;;;;;;;;;;;8.80;99.40;;;;;;4304227;33;43483;-84
2022/03/01 15:13:52;;;;;;;;;;;8.80;99.50;;;;;;4304309;33;42648;-84
2022/03/01 15:16:19;;;;;;;;;;;8.80;99.30;;;;;;4317049;33;43906;-84